sensor_id;sensor_type;location;lat;lon;timestamp;temperature;humidity
8253;DHT22;61313;48.396;10.008;2022-09-16T00:01:26;15.10;99.90
8253;DHT22;61313;48.396;10.008;2022-09-16T00:03:53;15.10;99.90
8253;DHT22;61313;48.396;10.008;2022-09-16T00:06:23;15.10;99.90
8253;DHT22;61313;48.396;10.008;2022-09-16T00:08:50;15.10;70.30
8253;DHT22;61313;48.396;10.008;2022-09-16T00:11:17;15.10;1.00
8253;DHT22;61313;48.396;10.008;2022-09-16T00:13:43;15.10;59.00
8253;DHT22;61313;48.396;10.008;2022-09-16T00:16:12;15.10;28.20
8253;DHT22;61313;48.396;10.008;2022-09-16T00:18:40;15.10;97.90
8253;DHT22;61313;48.396;10.008;2022-09-16T00:21:07;15.10;99.90
8253;DHT22;61313;48.396;10.008;2022-09-16T00:23:34;15.10;99.90
8253;DHT22;61313;48.396;10.008;2022-09-16T00:26:00;15.10;16.90
8253;DHT22;61313;48.396;10.008;2022-09-16T00:28:26;15.00;1.00
8253;DHT22;61313;48.396;10.008;2022-09-16T00:30:52;14.90;6.30
8253;DHT22;61313;48.396;10.008;2022-09-16T00:33:18;14.90;25.70
8253;DHT22;61313;48.396;10.008;2022-09-16T00:35:45;14.90;99.90
8253;DHT22;61313;48.396;10.008;2022-09-16T00:38:11;14.90;99.90
8253;DHT22;61313;48.396;10.008;2022-09-16T00:40:46;14.80;99.90
8253;DHT22;61313;48.396;10.008;2022-09-16T00:43:17;14.90;99.90
8253;DHT22;61313;48.396;10.008;2022-09-16T00:45:46;14.90;99.90
8253;DHT22;61313;48.396;10.008;2022-09-16T00:48:20;14.80;99.90
8253;DHT22;61313;48.396;10.008;2022-09-16T00:50:50;14.80;1.00
8253;DHT22;61313;48.396;10.008;2022-09-16T00:53:40;14.80;1.00
8253;DHT22;61313;48.396;10.008;2022-09-16T00:56:08;14.80;1.00
8253;DHT22;61313;48.396;10.008;2022-09-16T00:59:30;14.90;1.00
8253;DHT22;61313;48.396;10.008;2022-09-16T01:01:31;14.90;1.00
8253;DHT22;61313;48.396;10.008;2022-09-16T01:04:07;14.90;1.00
8253;DHT22;61313;48.396;10.008;2022-09-16T01:06:37;14.90;1.00
8253;DHT22;61313;48.396;10.008;2022-09-16T01:09:04;14.90;99.90
8253;DHT22;61313;48.396;10.008;2022-09-16T01:11:30;14.90;99.90
8253;DHT22;61313;48.396;10.008;2022-09-16T01:13:57;14.90;1.00
8253;DHT22;61313;48.396;10.008;2022-09-16T01:16:49;14.80;1.00
8253;DHT22;61313;48.396;10.008;2022-09-16T01:33:28;14.50;99.90
8253;DHT22;61313;48.396;10.008;2022-09-16T01:39:17;14.50;99.90
8253;DHT22;61313;48.396;10.008;2022-09-16T01:42:05;14.50;99.90
8253;DHT22;61313;48.396;10.008;2022-09-16T01:44:50;14.50;99.90
8253;DHT22;61313;48.396;10.008;2022-09-16T01:55:29;14.40;99.90
8253;DHT22;61313;48.396;10.008;2022-09-16T01:58:25;14.40;99.90
8253;DHT22;61313;48.396;10.008;2022-09-16T02:00:56;14.40;99.90
8253;DHT22;61313;48.396;10.008;2022-09-16T02:03:27;14.40;99.90
8253;DHT22;61313;48.396;10.008;2022-09-16T02:06:05;14.40;99.90
8253;DHT22;61313;48.396;10.008;2022-09-16T02:09:19;14.40;99.90
8253;DHT22;61313;48.396;10.008;2022-09-16T02:11:25;14.40;99.90
8253;DHT22;61313;48.396;10.008;2022-09-16T02:14:04;14.40;99.90
8253;DHT22;61313;48.396;10.008;2022-09-16T02:16:49;14.40;99.90
8253;DHT22;61313;48.396;10.008;2022-09-16T02:19:25;14.40;99.90
8253;DHT22;61313;48.396;10.008;2022-09-16T02:21:52;14.40;99.90
8253;DHT22;61313;48.396;10.008;2022-09-16T02:24:20;14.50;99.90
8253;DHT22;61313;48.396;10.008;2022-09-16T02:26:59;14.50;99.90
8253;DHT22;61313;48.396;10.008;2022-09-16T02:29:27;14.60;99.90
8253;DHT22;61313;48.396;10.008;2022-09-16T02:31:58;14.60;99.90
8253;DHT22;61313;48.396;10.008;2022-09-16T02:34:33;14.60;99.90
8253;DHT22;61313;48.396;10.008;2022-09-16T02:37:05;14.50;99.90
8253;DHT22;61313;48.396;10.008;2022-09-16T02:39:36;14.50;99.90
8253;DHT22;61313;48.396;10.008;2022-09-16T02:42:04;14.50;99.90
8253;DHT22;61313;48.396;10.008;2022-09-16T02:44:30;14.40;99.90
8253;DHT22;61313;48.396;10.008;2022-09-16T02:52:55;14.50;99.90
8253;DHT22;61313;48.396;10.008;2022-09-16T02:58:20;14.60;96.00
8253;DHT22;61313;48.396;10.008;2022-09-16T03:00:48;14.50;99.90
8253;DHT22;61313;48.396;10.008;2022-09-16T03:03:16;14.60;32.20
8253;DHT22;61313;48.396;10.008;2022-09-16T03:08:36;14.40;99.90
8253;DHT22;61313;48.396;10.008;2022-09-16T03:16:49;14.30;99.90
8253;DHT22;61313;48.396;10.008;2022-09-16T03:27:10;14.30;99.90
8253;DHT22;61313;48.396;10.008;2022-09-16T03:29:46;14.30;99.90
8253;DHT22;61313;48.396;10.008;2022-09-16T03:32:23;14.30;99.90
8253;DHT22;61313;48.396;10.008;2022-09-16T03:34:50;14.30;99.90
8253;DHT22;61313;48.396;10.008;2022-09-16T03:37:18;14.20;99.90
8253;DHT22;61313;48.396;10.008;2022-09-16T03:39:51;14.10;1.00
8253;DHT22;61313;48.396;10.008;2022-09-16T03:42:18;14.10;1.00
8253;DHT22;61313;48.396;10.008;2022-09-16T03:44:44;14.20;1.00
8253;DHT22;61313;48.396;10.008;2022-09-16T03:47:10;14.20;1.00
8253;DHT22;61313;48.396;10.008;2022-09-16T03:49:36;14.20;1.00
8253;DHT22;61313;48.396;10.008;2022-09-16T03:52:03;14.30;99.90
8253;DHT22;61313;48.396;10.008;2022-09-16T03:54:30;14.40;99.90
8253;DHT22;61313;48.396;10.008;2022-09-16T03:56:56;14.40;99.90
8253;DHT22;61313;48.396;10.008;2022-09-16T03:59:22;14.50;99.90
8253;DHT22;61313;48.396;10.008;2022-09-16T04:01:48;14.40;99.90
8253;DHT22;61313;48.396;10.008;2022-09-16T04:04:14;14.40;99.90
8253;DHT22;61313;48.396;10.008;2022-09-16T04:06:40;14.40;99.90
8253;DHT22;61313;48.396;10.008;2022-09-16T04:09:06;14.40;99.90
8253;DHT22;61313;48.396;10.008;2022-09-16T04:11:33;14.50;99.90
8253;DHT22;61313;48.396;10.008;2022-09-16T04:14:00;14.50;99.90
8253;DHT22;61313;48.396;10.008;2022-09-16T04:16:25;14.50;99.90
8253;DHT22;61313;48.396;10.008;2022-09-16T04:18:52;14.50;99.90
8253;DHT22;61313;48.396;10.008;2022-09-16T04:21:18;14.50;99.90
8253;DHT22;61313;48.396;10.008;2022-09-16T04:23:44;14.50;99.90
8253;DHT22;61313;48.396;10.008;2022-09-16T04:26:10;14.50;99.90
8253;DHT22;61313;48.396;10.008;2022-09-16T04:28:36;14.50;99.90
8253;DHT22;61313;48.396;10.008;2022-09-16T04:31:04;14.50;99.90
8253;DHT22;61313;48.396;10.008;2022-09-16T04:33:32;14.40;99.90
8253;DHT22;61313;48.396;10.008;2022-09-16T04:36:03;14.40;99.90
8253;DHT22;61313;48.396;10.008;2022-09-16T04:38:28;14.40;99.90
8253;DHT22;61313;48.396;10.008;2022-09-16T04:41:09;14.50;99.90
8253;DHT22;61313;48.396;10.008;2022-09-16T04:43:38;14.50;99.90
8253;DHT22;61313;48.396;10.008;2022-09-16T04:46:05;14.50;99.90
8253;DHT22;61313;48.396;10.008;2022-09-16T04:48:31;14.50;99.90
8253;DHT22;61313;48.396;10.008;2022-09-16T04:51:05;14.50;99.90
8253;DHT22;61313;48.396;10.008;2022-09-16T04:53:32;14.50;99.90
8253;DHT22;61313;48.396;10.008;2022-09-16T04:56:09;14.40;99.90
8253;DHT22;61313;48.396;10.008;2022-09-16T04:58:43;14.40;99.90
8253;DHT22;61313;48.396;10.008;2022-09-16T05:01:11;14.50;99.90
8253;DHT22;61313;48.396;10.008;2022-09-16T05:03:48;14.50;99.90
8253;DHT22;61313;48.396;10.008;2022-09-16T05:06:20;14.60;99.90
8253;DHT22;61313;48.396;10.008;2022-09-16T05:08:47;14.60;99.90
8253;DHT22;61313;48.396;10.008;2022-09-16T05:11:16;14.70;99.90
8253;DHT22;61313;48.396;10.008;2022-09-16T05:13:42;14.60;99.90
8253;DHT22;61313;48.396;10.008;2022-09-16T05:16:11;14.60;99.90
8253;DHT22;61313;48.396;10.008;2022-09-16T05:18:38;14.60;99.90
8253;DHT22;61313;48.396;10.008;2022-09-16T05:21:07;14.60;99.90
8253;DHT22;61313;48.396;10.008;2022-09-16T05:23:33;14.70;1.00
8253;DHT22;61313;48.396;10.008;2022-09-16T05:28:28;14.70;1.00
8253;DHT22;61313;48.396;10.008;2022-09-16T05:30:54;14.70;1.00
8253;DHT22;61313;48.396;10.008;2022-09-16T05:33:20;14.70;1.00
8253;DHT22;61313;48.396;10.008;2022-09-16T05:35:46;14.70;1.00
8253;DHT22;61313;48.396;10.008;2022-09-16T05:38:12;14.60;1.00
8253;DHT22;61313;48.396;10.008;2022-09-16T05:40:38;14.60;1.00
8253;DHT22;61313;48.396;10.008;2022-09-16T05:43:04;14.50;1.00
8253;DHT22;61313;48.396;10.008;2022-09-16T05:45:30;14.40;1.00
8253;DHT22;61313;48.396;10.008;2022-09-16T05:47:55;14.40;1.00
8253;DHT22;61313;48.396;10.008;2022-09-16T05:50:21;14.40;1.00
8253;DHT22;61313;48.396;10.008;2022-09-16T05:52:47;14.40;1.00
8253;DHT22;61313;48.396;10.008;2022-09-16T05:55:12;14.30;1.00
8253;DHT22;61313;48.396;10.008;2022-09-16T05:57:38;14.30;1.00
8253;DHT22;61313;48.396;10.008;2022-09-16T06:00:04;14.30;1.00
8253;DHT22;61313;48.396;10.008;2022-09-16T06:02:31;14.30;1.00
8253;DHT22;61313;48.396;10.008;2022-09-16T06:04:56;14.40;1.00
8253;DHT22;61313;48.396;10.008;2022-09-16T06:07:23;14.40;1.00
8253;DHT22;61313;48.396;10.008;2022-09-16T06:09:49;14.40;1.00
8253;DHT22;61313;48.396;10.008;2022-09-16T06:12:14;14.40;1.00
8253;DHT22;61313;48.396;10.008;2022-09-16T06:14:40;14.50;1.00
8253;DHT22;61313;48.396;10.008;2022-09-16T06:17:06;14.60;1.00
8253;DHT22;61313;48.396;10.008;2022-09-16T06:19:31;14.70;1.00
8253;DHT22;61313;48.396;10.008;2022-09-16T06:21:57;14.80;1.00
8253;DHT22;61313;48.396;10.008;2022-09-16T06:24:23;14.70;1.00
8253;DHT22;61313;48.396;10.008;2022-09-16T06:26:48;14.60;1.00
8253;DHT22;61313;48.396;10.008;2022-09-16T06:29:15;14.50;1.00
8253;DHT22;61313;48.396;10.008;2022-09-16T06:31:41;14.60;1.00
8253;DHT22;61313;48.396;10.008;2022-09-16T06:34:11;14.70;1.00
8253;DHT22;61313;48.396;10.008;2022-09-16T06:36:38;15.10;1.00
8253;DHT22;61313;48.396;10.008;2022-09-16T06:39:04;15.20;1.00
8253;DHT22;61313;48.396;10.008;2022-09-16T06:41:31;15.40;99.90
8253;DHT22;61313;48.396;10.008;2022-09-16T06:44:00;15.50;99.90
8253;DHT22;61313;48.396;10.008;2022-09-16T06:46:27;15.40;99.90
8253;DHT22;61313;48.396;10.008;2022-09-16T06:48:55;15.30;99.90
8253;DHT22;61313;48.396;10.008;2022-09-16T06:51:25;15.30;99.90
8253;DHT22;61313;48.396;10.008;2022-09-16T06:53:52;15.40;99.90
8253;DHT22;61313;48.396;10.008;2022-09-16T06:56:20;15.50;99.90
8253;DHT22;61313;48.396;10.008;2022-09-16T06:58:48;15.50;99.90
8253;DHT22;61313;48.396;10.008;2022-09-16T07:01:19;15.50;99.90
8253;DHT22;61313;48.396;10.008;2022-09-16T07:03:48;15.40;99.90
8253;DHT22;61313;48.396;10.008;2022-09-16T07:06:15;15.40;99.90
8253;DHT22;61313;48.396;10.008;2022-09-16T07:08:42;15.40;99.90
8253;DHT22;61313;48.396;10.008;2022-09-16T07:11:19;15.30;99.90
8253;DHT22;61313;48.396;10.008;2022-09-16T07:13:47;15.20;1.00
8253;DHT22;61313;48.396;10.008;2022-09-16T07:16:15;15.10;1.00
8253;DHT22;61313;48.396;10.008;2022-09-16T07:18:42;15.20;1.00
8253;DHT22;61313;48.396;10.008;2022-09-16T07:21:13;15.40;1.00
8253;DHT22;61313;48.396;10.008;2022-09-16T07:23:40;15.40;1.00
8253;DHT22;61313;48.396;10.008;2022-09-16T07:28:37;15.20;1.00
8253;DHT22;61313;48.396;10.008;2022-09-16T07:31:09;15.30;1.00
8253;DHT22;61313;48.396;10.008;2022-09-16T07:33:36;15.40;1.00
8253;DHT22;61313;48.396;10.008;2022-09-16T07:36:03;15.20;1.00
8253;DHT22;61313;48.396;10.008;2022-09-16T07:38:30;15.20;1.00
8253;DHT22;61313;48.396;10.008;2022-09-16T07:41:03;15.30;1.00
8253;DHT22;61313;48.396;10.008;2022-09-16T07:43:29;15.40;1.00
8253;DHT22;61313;48.396;10.008;2022-09-16T07:45:56;15.40;1.00
8253;DHT22;61313;48.396;10.008;2022-09-16T07:48:22;15.20;1.00
8253;DHT22;61313;48.396;10.008;2022-09-16T07:50:59;15.30;1.00
8253;DHT22;61313;48.396;10.008;2022-09-16T07:53:26;15.40;1.00
8253;DHT22;61313;48.396;10.008;2022-09-16T07:55:54;15.30;1.00
8253;DHT22;61313;48.396;10.008;2022-09-16T07:58:20;15.30;1.00
8253;DHT22;61313;48.396;10.008;2022-09-16T08:00:48;15.20;1.00
8253;DHT22;61313;48.396;10.008;2022-09-16T08:03:14;15.20;1.00
8253;DHT22;61313;48.396;10.008;2022-09-16T08:05:40;15.30;1.00
8253;DHT22;61313;48.396;10.008;2022-09-16T08:08:06;15.30;1.00
8253;DHT22;61313;48.396;10.008;2022-09-16T08:10:32;15.40;1.00
8253;DHT22;61313;48.396;10.008;2022-09-16T08:12:59;15.40;1.00
8253;DHT22;61313;48.396;10.008;2022-09-16T08:15:25;15.20;1.00
8253;DHT22;61313;48.396;10.008;2022-09-16T08:17:53;15.10;1.00
8253;DHT22;61313;48.396;10.008;2022-09-16T08:20:18;14.90;1.00
8253;DHT22;61313;48.396;10.008;2022-09-16T08:22:44;14.80;1.00
8253;DHT22;61313;48.396;10.008;2022-09-16T08:25:10;14.70;1.00
8253;DHT22;61313;48.396;10.008;2022-09-16T08:27:36;14.80;1.00
8253;DHT22;61313;48.396;10.008;2022-09-16T08:30:03;14.80;1.00
8253;DHT22;61313;48.396;10.008;2022-09-16T08:32:29;14.90;1.00
8253;DHT22;61313;48.396;10.008;2022-09-16T08:34:55;14.90;1.00
8253;DHT22;61313;48.396;10.008;2022-09-16T08:37:22;14.80;1.00
8253;DHT22;61313;48.396;10.008;2022-09-16T08:39:47;14.60;1.00
8253;DHT22;61313;48.396;10.008;2022-09-16T08:48:26;14.40;99.90
8253;DHT22;61313;48.396;10.008;2022-09-16T08:50:56;14.40;1.00
8253;DHT22;61313;48.396;10.008;2022-09-16T08:53:49;14.50;99.90
8253;DHT22;61313;48.396;10.008;2022-09-16T08:56:20;14.40;99.90
8253;DHT22;61313;48.396;10.008;2022-09-16T08:58:52;14.20;99.90
8253;DHT22;61313;48.396;10.008;2022-09-16T09:03:52;14.30;1.00
8253;DHT22;61313;48.396;10.008;2022-09-16T09:06:57;14.40;99.90
8253;DHT22;61313;48.396;10.008;2022-09-16T09:12:58;14.40;99.90
8253;DHT22;61313;48.396;10.008;2022-09-16T09:15:40;14.20;99.90
8253;DHT22;61313;48.396;10.008;2022-09-16T09:18:27;14.10;99.90
8253;DHT22;61313;48.396;10.008;2022-09-16T09:21:10;14.20;1.00
8253;DHT22;61313;48.396;10.008;2022-09-16T09:24:18;14.10;1.00
8253;DHT22;61313;48.396;10.008;2022-09-16T09:30:24;14.20;1.00
8253;DHT22;61313;48.396;10.008;2022-09-16T09:38:37;14.00;99.90
8253;DHT22;61313;48.396;10.008;2022-09-16T09:41:10;14.00;1.00
8253;DHT22;61313;48.396;10.008;2022-09-16T09:43:45;13.90;99.90
8253;DHT22;61313;48.396;10.008;2022-09-16T09:46:29;13.80;1.00
8253;DHT22;61313;48.396;10.008;2022-09-16T09:49:04;13.70;99.90
8253;DHT22;61313;48.396;10.008;2022-09-16T09:51:40;13.70;1.00
8253;DHT22;61313;48.396;10.008;2022-09-16T09:54:39;13.80;1.00
8253;DHT22;61313;48.396;10.008;2022-09-16T10:00:16;14.20;1.00
8253;DHT22;61313;48.396;10.008;2022-09-16T10:02:44;14.20;1.00
8253;DHT22;61313;48.396;10.008;2022-09-16T10:05:27;14.20;1.00
8253;DHT22;61313;48.396;10.008;2022-09-16T10:10:54;14.20;99.90
8253;DHT22;61313;48.396;10.008;2022-09-16T10:13:21;14.10;1.00
8253;DHT22;61313;48.396;10.008;2022-09-16T10:15:48;14.20;1.00
8253;DHT22;61313;48.396;10.008;2022-09-16T10:18:26;14.30;1.00
8253;DHT22;61313;48.396;10.008;2022-09-16T10:21:06;14.50;99.90
8253;DHT22;61313;48.396;10.008;2022-09-16T10:23:33;14.50;99.90
8253;DHT22;61313;48.396;10.008;2022-09-16T10:28:33;14.50;99.90
8253;DHT22;61313;48.396;10.008;2022-09-16T10:31:00;14.50;99.90
8253;DHT22;61313;48.396;10.008;2022-09-16T10:33:40;14.50;99.90
8253;DHT22;61313;48.396;10.008;2022-09-16T10:36:09;14.40;99.90
8253;DHT22;61313;48.396;10.008;2022-09-16T10:38:38;14.30;99.90
8253;DHT22;61313;48.396;10.008;2022-09-16T10:41:16;14.30;99.90
8253;DHT22;61313;48.396;10.008;2022-09-16T10:43:57;14.20;99.90
8253;DHT22;61313;48.396;10.008;2022-09-16T10:46:23;14.20;1.00
8253;DHT22;61313;48.396;10.008;2022-09-16T10:48:50;14.30;1.00
8253;DHT22;61313;48.396;10.008;2022-09-16T10:51:30;14.40;99.90
8253;DHT22;61313;48.396;10.008;2022-09-16T10:54:00;14.40;99.90
8253;DHT22;61313;48.396;10.008;2022-09-16T10:56:31;14.50;99.90
8253;DHT22;61313;48.396;10.008;2022-09-16T10:59:07;14.40;99.90
8253;DHT22;61313;48.396;10.008;2022-09-16T11:01:56;14.20;99.90
8253;DHT22;61313;48.396;10.008;2022-09-16T11:04:34;14.30;99.90
8253;DHT22;61313;48.396;10.008;2022-09-16T11:13:27;14.70;1.00
8253;DHT22;61313;48.396;10.008;2022-09-16T11:21:55;15.20;99.90
8253;DHT22;61313;48.396;10.008;2022-09-16T11:27:15;15.00;1.00
8253;DHT22;61313;48.396;10.008;2022-09-16T11:38:21;15.30;1.00
8253;DHT22;61313;48.396;10.008;2022-09-16T11:46:21;15.30;1.00
8253;DHT22;61313;48.396;10.008;2022-09-16T11:52:22;15.40;73.60
8253;DHT22;61313;48.396;10.008;2022-09-16T11:54:24;15.40;1.00
8253;DHT22;61313;48.396;10.008;2022-09-16T11:57:01;15.40;1.00
8253;DHT22;61313;48.396;10.008;2022-09-16T12:00:19;15.30;1.00
8253;DHT22;61313;48.396;10.008;2022-09-16T12:02:58;15.40;1.00
8253;DHT22;61313;48.396;10.008;2022-09-16T12:08:11;15.60;99.90
8253;DHT22;61313;48.396;10.008;2022-09-16T12:10:53;15.60;1.00
8253;DHT22;61313;48.396;10.008;2022-09-16T12:13:35;15.60;99.90
8253;DHT22;61313;48.396;10.008;2022-09-16T12:16:10;15.80;1.70
8253;DHT22;61313;48.396;10.008;2022-09-16T12:18:44;15.80;99.90
8253;DHT22;61313;48.396;10.008;2022-09-16T12:21:23;16.00;99.90
8253;DHT22;61313;48.396;10.008;2022-09-16T12:24:12;16.10;1.00
8253;DHT22;61313;48.396;10.008;2022-09-16T12:26:56;16.20;1.00
8253;DHT22;61313;48.396;10.008;2022-09-16T12:32:19;16.30;99.90
8253;DHT22;61313;48.396;10.008;2022-09-16T12:34:52;16.10;1.00
8253;DHT22;61313;48.396;10.008;2022-09-16T12:37:29;16.20;1.00
8253;DHT22;61313;48.396;10.008;2022-09-16T12:39:57;16.20;1.00
8253;DHT22;61313;48.396;10.008;2022-09-16T12:45:14;16.10;1.00
8253;DHT22;61313;48.396;10.008;2022-09-16T13:01:31;16.10;1.00
8253;DHT22;61313;48.396;10.008;2022-09-16T13:04:13;15.90;1.00
8253;DHT22;61313;48.396;10.008;2022-09-16T13:06:48;15.90;1.00
8253;DHT22;61313;48.396;10.008;2022-09-16T13:11:40;16.00;99.90
8253;DHT22;61313;48.396;10.008;2022-09-16T13:14:20;15.90;99.90
8253;DHT22;61313;48.396;10.008;2022-09-16T13:16:55;16.00;99.90
8253;DHT22;61313;48.396;10.008;2022-09-16T13:19:38;16.20;1.00
8253;DHT22;61313;48.396;10.008;2022-09-16T13:27:36;16.40;99.90
8253;DHT22;61313;48.396;10.008;2022-09-16T13:32:43;16.40;1.00
8253;DHT22;61313;48.396;10.008;2022-09-16T13:37:45;16.40;1.00
8253;DHT22;61313;48.396;10.008;2022-09-16T13:40:21;16.40;1.00
8253;DHT22;61313;48.396;10.008;2022-09-16T13:42:48;16.40;1.00
8253;DHT22;61313;48.396;10.008;2022-09-16T13:45:37;16.30;1.00
8253;DHT22;61313;48.396;10.008;2022-09-16T13:48:16;16.30;1.00
8253;DHT22;61313;48.396;10.008;2022-09-16T13:50:54;16.40;1.00
8253;DHT22;61313;48.396;10.008;2022-09-16T13:53:31;16.50;1.00
8253;DHT22;61313;48.396;10.008;2022-09-16T14:13:10;17.30;99.90
8253;DHT22;61313;48.396;10.008;2022-09-16T14:15:44;18.10;1.50
8253;DHT22;61313;48.396;10.008;2022-09-16T14:18:14;18.80;99.90
8253;DHT22;61313;48.396;10.008;2022-09-16T14:21:14;19.00;1.00
8253;DHT22;61313;48.396;10.008;2022-09-16T14:23:41;18.90;1.00
8253;DHT22;61313;48.396;10.008;2022-09-16T14:26:21;18.90;1.00
8253;DHT22;61313;48.396;10.008;2022-09-16T14:28:47;19.00;1.00
8253;DHT22;61313;48.396;10.008;2022-09-16T14:31:27;19.20;1.00
8253;DHT22;61313;48.396;10.008;2022-09-16T14:33:56;19.20;1.00
8253;DHT22;61313;48.396;10.008;2022-09-16T14:36:25;18.90;99.90
8253;DHT22;61313;48.396;10.008;2022-09-16T14:39:01;18.90;1.00
8253;DHT22;61313;48.396;10.008;2022-09-16T14:41:31;18.70;99.90
8253;DHT22;61313;48.396;10.008;2022-09-16T14:46:49;18.80;99.90
8253;DHT22;61313;48.396;10.008;2022-09-16T14:49:17;18.80;99.90
8253;DHT22;61313;48.396;10.008;2022-09-16T14:51:46;18.70;99.90
8253;DHT22;61313;48.396;10.008;2022-09-16T14:54:17;18.60;99.90
8253;DHT22;61313;48.396;10.008;2022-09-16T14:56:54;18.30;99.90
8253;DHT22;61313;48.396;10.008;2022-09-16T14:59:32;17.80;99.90
8253;DHT22;61313;48.396;10.008;2022-09-16T15:07:43;17.00;99.90
8253;DHT22;61313;48.396;10.008;2022-09-16T15:10:24;16.90;99.90
8253;DHT22;61313;48.396;10.008;2022-09-16T15:13:15;16.80;99.90
8253;DHT22;61313;48.396;10.008;2022-09-16T15:15:46;16.80;99.90
8253;DHT22;61313;48.396;10.008;2022-09-16T15:23:30;16.80;99.90
8253;DHT22;61313;48.396;10.008;2022-09-16T15:26:03;16.80;99.90
8253;DHT22;61313;48.396;10.008;2022-09-16T15:28:30;16.80;99.90
8253;DHT22;61313;48.396;10.008;2022-09-16T15:30:55;16.80;99.90
8253;DHT22;61313;48.396;10.008;2022-09-16T15:33:36;16.70;99.90
8253;DHT22;61313;48.396;10.008;2022-09-16T15:36:03;16.70;99.90
8253;DHT22;61313;48.396;10.008;2022-09-16T15:38:29;16.80;99.90
8253;DHT22;61313;48.396;10.008;2022-09-16T15:41:09;16.80;99.90
8253;DHT22;61313;48.396;10.008;2022-09-16T15:43:41;17.20;99.90
8253;DHT22;61313;48.396;10.008;2022-09-16T15:46:14;16.90;99.90
8253;DHT22;61313;48.396;10.008;2022-09-16T15:48:54;17.10;99.90
8253;DHT22;61313;48.396;10.008;2022-09-16T15:53:51;16.50;99.90
8253;DHT22;61313;48.396;10.008;2022-09-16T15:56:31;16.50;99.90
8253;DHT22;61313;48.396;10.008;2022-09-16T15:59:04;16.40;99.90
8253;DHT22;61313;48.396;10.008;2022-09-16T16:01:42;16.80;99.90
8253;DHT22;61313;48.396;10.008;2022-09-16T16:04:23;16.70;99.90
8253;DHT22;61313;48.396;10.008;2022-09-16T16:06:56;16.50;99.90
8253;DHT22;61313;48.396;10.008;2022-09-16T16:11:59;16.20;99.90
8253;DHT22;61313;48.396;10.008;2022-09-16T16:14:30;16.20;99.90
8253;DHT22;61313;48.396;10.008;2022-09-16T16:17:04;16.20;99.90
8253;DHT22;61313;48.396;10.008;2022-09-16T16:19:31;16.10;99.90
8253;DHT22;61313;48.396;10.008;2022-09-16T16:21:57;16.10;99.90
8253;DHT22;61313;48.396;10.008;2022-09-16T16:24:23;16.10;99.90
8253;DHT22;61313;48.396;10.008;2022-09-16T16:26:50;16.10;99.90
8253;DHT22;61313;48.396;10.008;2022-09-16T16:29:16;16.20;99.90
8253;DHT22;61313;48.396;10.008;2022-09-16T16:34:26;16.10;99.90
8253;DHT22;61313;48.396;10.008;2022-09-16T16:36:52;16.10;99.90
8253;DHT22;61313;48.396;10.008;2022-09-16T16:39:19;16.10;99.90
8253;DHT22;61313;48.396;10.008;2022-09-16T16:41:45;16.10;99.90
8253;DHT22;61313;48.396;10.008;2022-09-16T16:44:11;16.10;1.00
8253;DHT22;61313;48.396;10.008;2022-09-16T16:46:36;16.10;1.00
8253;DHT22;61313;48.396;10.008;2022-09-16T16:49:02;16.00;1.00
8253;DHT22;61313;48.396;10.008;2022-09-16T16:51:28;15.90;1.00
8253;DHT22;61313;48.396;10.008;2022-09-16T16:53:54;15.80;1.00
8253;DHT22;61313;48.396;10.008;2022-09-16T16:56:19;15.80;1.00
8253;DHT22;61313;48.396;10.008;2022-09-16T16:58:45;15.80;1.00
8253;DHT22;61313;48.396;10.008;2022-09-16T17:01:13;15.80;1.00
8253;DHT22;61313;48.396;10.008;2022-09-16T17:03:39;15.80;1.00
8253;DHT22;61313;48.396;10.008;2022-09-16T17:06:05;15.80;1.00
8253;DHT22;61313;48.396;10.008;2022-09-16T17:08:32;15.70;1.00
8253;DHT22;61313;48.396;10.008;2022-09-16T17:13:31;15.70;1.00
8253;DHT22;61313;48.396;10.008;2022-09-16T17:15:57;15.60;1.00
8253;DHT22;61313;48.396;10.008;2022-09-16T17:18:23;15.60;1.00
8253;DHT22;61313;48.396;10.008;2022-09-16T17:20:49;15.60;1.00
8253;DHT22;61313;48.396;10.008;2022-09-16T17:23:15;15.50;1.00
8253;DHT22;61313;48.396;10.008;2022-09-16T17:25:40;15.50;1.00
8253;DHT22;61313;48.396;10.008;2022-09-16T17:28:06;15.50;1.00
8253;DHT22;61313;48.396;10.008;2022-09-16T17:30:32;15.50;1.00
8253;DHT22;61313;48.396;10.008;2022-09-16T17:32:58;15.40;1.00
8253;DHT22;61313;48.396;10.008;2022-09-16T17:35:23;15.40;1.00
8253;DHT22;61313;48.396;10.008;2022-09-16T17:37:49;15.40;1.00
8253;DHT22;61313;48.396;10.008;2022-09-16T17:40:15;15.40;1.00
8253;DHT22;61313;48.396;10.008;2022-09-16T17:42:42;15.40;1.00
8253;DHT22;61313;48.396;10.008;2022-09-16T17:45:08;15.40;1.00
8253;DHT22;61313;48.396;10.008;2022-09-16T17:47:34;15.50;1.00
8253;DHT22;61313;48.396;10.008;2022-09-16T17:50:00;15.40;1.00
8253;DHT22;61313;48.396;10.008;2022-09-16T17:52:29;15.40;1.00
8253;DHT22;61313;48.396;10.008;2022-09-16T17:54:55;15.30;1.00
8253;DHT22;61313;48.396;10.008;2022-09-16T17:57:21;15.30;1.00
8253;DHT22;61313;48.396;10.008;2022-09-16T17:59:47;15.20;72.50
8253;DHT22;61313;48.396;10.008;2022-09-16T18:02:13;15.10;99.90
8253;DHT22;61313;48.396;10.008;2022-09-16T18:04:40;15.00;99.90
8253;DHT22;61313;48.396;10.008;2022-09-16T18:07:07;15.00;99.90
8253;DHT22;61313;48.396;10.008;2022-09-16T18:09:33;15.00;99.90
8253;DHT22;61313;48.396;10.008;2022-09-16T18:11:59;14.90;1.00
8253;DHT22;61313;48.396;10.008;2022-09-16T18:14:25;14.90;1.00
8253;DHT22;61313;48.396;10.008;2022-09-16T18:16:50;14.90;1.00
8253;DHT22;61313;48.396;10.008;2022-09-16T18:19:16;14.90;1.00
8253;DHT22;61313;48.396;10.008;2022-09-16T18:21:42;14.90;1.00
8253;DHT22;61313;48.396;10.008;2022-09-16T18:24:10;14.90;1.00
8253;DHT22;61313;48.396;10.008;2022-09-16T18:26:38;14.80;99.90
8253;DHT22;61313;48.396;10.008;2022-09-16T18:29:11;14.80;99.90
8253;DHT22;61313;48.396;10.008;2022-09-16T18:31:41;14.70;1.00
8253;DHT22;61313;48.396;10.008;2022-09-16T18:34:10;14.60;1.00
8253;DHT22;61313;48.396;10.008;2022-09-16T18:36:37;14.60;99.90
8253;DHT22;61313;48.396;10.008;2022-09-16T18:39:04;14.60;99.90
8253;DHT22;61313;48.396;10.008;2022-09-16T18:41:34;14.60;99.90
8253;DHT22;61313;48.396;10.008;2022-09-16T18:44:02;14.70;99.90
8253;DHT22;61313;48.396;10.008;2022-09-16T18:46:33;14.70;99.90
8253;DHT22;61313;48.396;10.008;2022-09-16T18:49:00;14.80;1.00
8253;DHT22;61313;48.396;10.008;2022-09-16T18:51:34;14.70;1.00
8253;DHT22;61313;48.396;10.008;2022-09-16T18:54:04;14.70;1.00
8253;DHT22;61313;48.396;10.008;2022-09-16T18:56:33;14.70;99.90
8253;DHT22;61313;48.396;10.008;2022-09-16T18:59:03;14.70;52.20
8253;DHT22;61313;48.396;10.008;2022-09-16T19:01:33;14.70;59.90
8253;DHT22;61313;48.396;10.008;2022-09-16T19:04:02;14.60;1.00
8253;DHT22;61313;48.396;10.008;2022-09-16T19:06:30;14.60;1.00
8253;DHT22;61313;48.396;10.008;2022-09-16T19:08:56;14.70;1.00
8253;DHT22;61313;48.396;10.008;2022-09-16T19:11:23;14.60;1.00
8253;DHT22;61313;48.396;10.008;2022-09-16T19:13:49;14.60;1.00